CheckWX is a tool to help pilots better visualize weather data.  It is not intended as a substitute for an official pre-flight weather briefing.

07:31:11 UTC

CYQF METAR
Red Deer Regional Airport
Red Deer, Canada
Current

31 mins ago

CYQF 210700Z 17004KT 15SM SCT080 04/M02 A2989 RMK AC3 SLP147
Observed
May-21 @ 07:00 UTC
Wind
  • 170° at 4 KTS
Visibility
15 SM
Flight Rules
VFR
Cloud Levels
  • Scattered at 8,000' AGL
Temperature
C / 39°F
Dewpoint
-2°C / 28°F
Humidity
65%
Altimeter
29.89" Hg
Pressure
1012.22 hPa
Previous

2 hours ago

CYQF 210600Z 17003KT 15SM SCT080 04/M02 A2990 RMK AC4 SLP147
Observed
May-21 @ 06:00 UTC
Wind
  • 170° at 3 KTS
Visibility
15 SM
Flight Rules
VFR
Cloud Levels
  • Scattered at 8,000' AGL
Temperature
C / 39°F
Dewpoint
-2°C / 28°F
Humidity
65%
Altimeter
29.9" Hg
Pressure
1012.52 hPa
Previous

3 hours ago

CYQF 210500Z 20003KT 15SM SCT085 06/M02 A2990 RMK AC4 SLP148
Observed
May-21 @ 05:00 UTC
Wind
  • 200° at 3 KTS
Visibility
15 SM
Flight Rules
VFR
Cloud Levels
  • Scattered at 8,500' AGL
Temperature
C / 43°F
Dewpoint
-2°C / 28°F
Humidity
57%
Altimeter
29.9" Hg
Pressure
1012.52 hPa